Terminal Aerodrome Forecast
Issued by NWS

Home | Current Version | Previous Version | Text Only | Print | Product List | Glossary On
Versions: 1 2 3 4 5 6 7 8 9 10 11 12 13 14 15 16 17 18 19
000
FTUS45 KFGZ 230100 AAA
TAFSEZ
TAF AMD
KSEZ 230108Z 2301/2324 23005KT P6SM SCT050 BKN090
     FM230400 05008KT P6SM FEW030
     FM231800 23010KT P6SM FEW050=

USA.gov is the U.S. government's official web portal to all federal, state and local government web resources and services.